sensor_id;sensor_type;location;lat;lon;timestamp;P1;durP1;ratioP1;P2;durP2;ratioP2
15287;SDS011;7745;48.708;9.026;2022-11-12T00:01:29;201.40;;;18.77;;
15287;SDS011;7745;48.708;9.026;2022-11-12T00:04:01;201.90;;;19.13;;
15287;SDS011;7745;48.708;9.026;2022-11-12T00:06:33;244.30;;;22.43;;
15287;SDS011;7745;48.708;9.026;2022-11-12T00:09:02;265.07;;;19.27;;
15287;SDS011;7745;48.708;9.026;2022-11-12T00:11:36;199.67;;;19.33;;
15287;SDS011;7745;48.708;9.026;2022-11-12T00:14:09;313.07;;;22.37;;
15287;SDS011;7745;48.708;9.026;2022-11-12T00:16:39;205.57;;;18.63;;
15287;SDS011;7745;48.708;9.026;2022-11-12T00:19:13;263.70;;;19.47;;
15287;SDS011;7745;48.708;9.026;2022-11-12T00:21:47;160.80;;;17.33;;
15287;SDS011;7745;48.708;9.026;2022-11-12T00:24:17;225.03;;;19.47;;
15287;SDS011;7745;48.708;9.026;2022-11-12T00:26:44;218.33;;;19.20;;
15287;SDS011;7745;48.708;9.026;2022-11-12T00:29:14;127.53;;;15.97;;
15287;SDS011;7745;48.708;9.026;2022-11-12T00:31:45;207.77;;;17.87;;
15287;SDS011;7745;48.708;9.026;2022-11-12T00:34:17;206.33;;;17.00;;
15287;SDS011;7745;48.708;9.026;2022-11-12T00:36:48;184.43;;;16.30;;
15287;SDS011;7745;48.708;9.026;2022-11-12T00:39:20;139.70;;;15.93;;
15287;SDS011;7745;48.708;9.026;2022-11-12T00:41:53;133.50;;;14.50;;
15287;SDS011;7745;48.708;9.026;2022-11-12T00:44:25;128.07;;;13.87;;
15287;SDS011;7745;48.708;9.026;2022-11-12T00:46:55;104.73;;;12.53;;
15287;SDS011;7745;48.708;9.026;2022-11-12T00:49:29;115.03;;;13.23;;
15287;SDS011;7745;48.708;9.026;2022-11-12T00:52:00;93.00;;;10.90;;
15287;SDS011;7745;48.708;9.026;2022-11-12T00:54:30;120.10;;;12.83;;
15287;SDS011;7745;48.708;9.026;2022-11-12T00:57:00;140.07;;;13.90;;
15287;SDS011;7745;48.708;9.026;2022-11-12T00:59:33;116.57;;;13.40;;
15287;SDS011;7745;48.708;9.026;2022-11-12T01:02:04;418.97;;;21.10;;
15287;SDS011;7745;48.708;9.026;2022-11-12T01:04:34;280.17;;;18.67;;
15287;SDS011;7745;48.708;9.026;2022-11-12T01:07:04;218.87;;;16.10;;
15287;SDS011;7745;48.708;9.026;2022-11-12T01:09:35;85.37;;;13.10;;
15287;SDS011;7745;48.708;9.026;2022-11-12T01:12:12;73.73;;;12.53;;
15287;SDS011;7745;48.708;9.026;2022-11-12T01:14:42;112.77;;;12.80;;
15287;SDS011;7745;48.708;9.026;2022-11-12T01:17:14;38.90;;;11.00;;
15287;SDS011;7745;48.708;9.026;2022-11-12T01:19:54;72.83;;;11.80;;
15287;SDS011;7745;48.708;9.026;2022-11-12T01:22:28;66.60;;;11.27;;
15287;SDS011;7745;48.708;9.026;2022-11-12T01:25:00;76.30;;;12.13;;
15287;SDS011;7745;48.708;9.026;2022-11-12T01:27:31;73.73;;;12.60;;
15287;SDS011;7745;48.708;9.026;2022-11-12T01:30:00;103.80;;;13.40;;
15287;SDS011;7745;48.708;9.026;2022-11-12T01:32:32;81.40;;;12.37;;
15287;SDS011;7745;48.708;9.026;2022-11-12T01:35:03;76.13;;;13.37;;
15287;SDS011;7745;48.708;9.026;2022-11-12T01:37:36;120.10;;;15.03;;
15287;SDS011;7745;48.708;9.026;2022-11-12T01:40:06;159.67;;;15.30;;
15287;SDS011;7745;48.708;9.026;2022-11-12T01:42:39;125.80;;;15.40;;
15287;SDS011;7745;48.708;9.026;2022-11-12T01:45:16;75.50;;;12.93;;
15287;SDS011;7745;48.708;9.026;2022-11-12T01:47:50;80.43;;;12.93;;
15287;SDS011;7745;48.708;9.026;2022-11-12T01:50:24;225.60;;;16.73;;
15287;SDS011;7745;48.708;9.026;2022-11-12T01:52:55;128.53;;;14.17;;
15287;SDS011;7745;48.708;9.026;2022-11-12T01:55:28;144.63;;;14.30;;
15287;SDS011;7745;48.708;9.026;2022-11-12T01:58:03;118.43;;;14.43;;
15287;SDS011;7745;48.708;9.026;2022-11-12T02:00:34;159.43;;;15.53;;
15287;SDS011;7745;48.708;9.026;2022-11-12T02:03:11;167.83;;;14.93;;
15287;SDS011;7745;48.708;9.026;2022-11-12T02:05:43;128.13;;;14.30;;
15287;SDS011;7745;48.708;9.026;2022-11-12T02:08:11;156.63;;;14.47;;
15287;SDS011;7745;48.708;9.026;2022-11-12T02:10:42;114.63;;;13.53;;
15287;SDS011;7745;48.708;9.026;2022-11-12T02:13:10;163.63;;;14.83;;
15287;SDS011;7745;48.708;9.026;2022-11-12T02:15:57;168.47;;;15.20;;
15287;SDS011;7745;48.708;9.026;2022-11-12T02:18:30;157.13;;;15.97;;
15287;SDS011;7745;48.708;9.026;2022-11-12T02:21:02;177.53;;;15.93;;
15287;SDS011;7745;48.708;9.026;2022-11-12T02:23:43;96.00;;;13.37;;
15287;SDS011;7745;48.708;9.026;2022-11-12T02:26:25;81.10;;;12.50;;
15287;SDS011;7745;48.708;9.026;2022-11-12T02:29:01;75.33;;;12.20;;
15287;SDS011;7745;48.708;9.026;2022-11-12T02:31:34;74.30;;;11.80;;
15287;SDS011;7745;48.708;9.026;2022-11-12T02:34:04;55.50;;;11.00;;
15287;SDS011;7745;48.708;9.026;2022-11-12T02:36:35;50.67;;;11.47;;
15287;SDS011;7745;48.708;9.026;2022-11-12T02:39:06;78.80;;;11.83;;
15287;SDS011;7745;48.708;9.026;2022-11-12T02:41:37;88.53;;;12.27;;
15287;SDS011;7745;48.708;9.026;2022-11-12T02:44:10;71.97;;;11.13;;
15287;SDS011;7745;48.708;9.026;2022-11-12T02:46:42;75.10;;;11.37;;
15287;SDS011;7745;48.708;9.026;2022-11-12T02:49:14;68.00;;;10.87;;
15287;SDS011;7745;48.708;9.026;2022-11-12T02:51:46;52.80;;;10.93;;
15287;SDS011;7745;48.708;9.026;2022-11-12T02:54:34;71.43;;;11.67;;
15287;SDS011;7745;48.708;9.026;2022-11-12T02:57:03;71.37;;;11.63;;
15287;SDS011;7745;48.708;9.026;2022-11-12T02:59:33;52.83;;;11.80;;
15287;SDS011;7745;48.708;9.026;2022-11-12T03:02:03;44.50;;;10.87;;
15287;SDS011;7745;48.708;9.026;2022-11-12T03:04:34;36.90;;;10.97;;
15287;SDS011;7745;48.708;9.026;2022-11-12T03:07:02;32.10;;;10.03;;
15287;SDS011;7745;48.708;9.026;2022-11-12T03:09:34;24.17;;;10.17;;
15287;SDS011;7745;48.708;9.026;2022-11-12T03:12:03;12.87;;;9.27;;
15287;SDS011;7745;48.708;9.026;2022-11-12T03:14:32;21.67;;;8.40;;
15287;SDS011;7745;48.708;9.026;2022-11-12T03:17:05;23.70;;;9.47;;
15287;SDS011;7745;48.708;9.026;2022-11-12T03:19:35;33.03;;;9.23;;
15287;SDS011;7745;48.708;9.026;2022-11-12T03:22:05;24.43;;;9.23;;
15287;SDS011;7745;48.708;9.026;2022-11-12T03:24:36;23.40;;;9.20;;
15287;SDS011;7745;48.708;9.026;2022-11-12T03:27:08;15.70;;;8.17;;
15287;SDS011;7745;48.708;9.026;2022-11-12T03:29:39;8.67;;;7.37;;
15287;SDS011;7745;48.708;9.026;2022-11-12T03:32:10;8.33;;;7.47;;
15287;SDS011;7745;48.708;9.026;2022-11-12T03:34:43;12.63;;;7.00;;
15287;SDS011;7745;48.708;9.026;2022-11-12T03:37:15;10.60;;;7.23;;
15287;SDS011;7745;48.708;9.026;2022-11-12T03:39:44;11.67;;;7.77;;
15287;SDS011;7745;48.708;9.026;2022-11-12T03:42:17;8.67;;;7.77;;
15287;SDS011;7745;48.708;9.026;2022-11-12T03:44:52;12.17;;;8.40;;
15287;SDS011;7745;48.708;9.026;2022-11-12T03:47:24;9.57;;;8.17;;
15287;SDS011;7745;48.708;9.026;2022-11-12T03:49:55;14.87;;;8.37;;
15287;SDS011;7745;48.708;9.026;2022-11-12T03:52:25;11.50;;;7.73;;
15287;SDS011;7745;48.708;9.026;2022-11-12T03:55:00;10.50;;;8.67;;
15287;SDS011;7745;48.708;9.026;2022-11-12T03:57:27;9.97;;;8.23;;
15287;SDS011;7745;48.708;9.026;2022-11-12T03:59:59;8.33;;;7.37;;
15287;SDS011;7745;48.708;9.026;2022-11-12T04:02:34;9.00;;;8.10;;
15287;SDS011;7745;48.708;9.026;2022-11-12T04:05:04;7.97;;;6.90;;
15287;SDS011;7745;48.708;9.026;2022-11-12T04:07:55;8.40;;;7.17;;
15287;SDS011;7745;48.708;9.026;2022-11-12T04:10:42;10.47;;;8.63;;
15287;SDS011;7745;48.708;9.026;2022-11-12T04:13:13;8.53;;;7.63;;
15287;SDS011;7745;48.708;9.026;2022-11-12T04:15:58;8.47;;;7.57;;
15287;SDS011;7745;48.708;9.026;2022-11-12T04:18:44;8.23;;;7.43;;
15287;SDS011;7745;48.708;9.026;2022-11-12T04:21:35;8.80;;;7.10;;
15287;SDS011;7745;48.708;9.026;2022-11-12T04:24:23;8.47;;;7.57;;
15287;SDS011;7745;48.708;9.026;2022-11-12T04:27:11;8.07;;;7.27;;
15287;SDS011;7745;48.708;9.026;2022-11-12T04:29:45;9.33;;;6.80;;
15287;SDS011;7745;48.708;9.026;2022-11-12T04:32:44;7.43;;;6.63;;
15287;SDS011;7745;48.708;9.026;2022-11-12T04:35:17;8.40;;;6.30;;
15287;SDS011;7745;48.708;9.026;2022-11-12T04:37:52;8.07;;;6.80;;
15287;SDS011;7745;48.708;9.026;2022-11-12T04:40:24;6.67;;;6.00;;
15287;SDS011;7745;48.708;9.026;2022-11-12T04:43:08;7.10;;;6.40;;
15287;SDS011;7745;48.708;9.026;2022-11-12T04:45:57;7.70;;;6.00;;
15287;SDS011;7745;48.708;9.026;2022-11-12T04:48:29;6.87;;;6.20;;
15287;SDS011;7745;48.708;9.026;2022-11-12T04:51:07;10.33;;;6.73;;
15287;SDS011;7745;48.708;9.026;2022-11-12T04:53:53;7.87;;;6.50;;
15287;SDS011;7745;48.708;9.026;2022-11-12T04:56:27;10.07;;;6.47;;
15287;SDS011;7745;48.708;9.026;2022-11-12T04:59:08;6.90;;;6.20;;
15287;SDS011;7745;48.708;9.026;2022-11-12T05:01:42;9.00;;;6.57;;
15287;SDS011;7745;48.708;9.026;2022-11-12T05:04:18;7.03;;;6.30;;
15287;SDS011;7745;48.708;9.026;2022-11-12T05:06:54;7.57;;;6.77;;
15287;SDS011;7745;48.708;9.026;2022-11-12T05:09:32;7.93;;;6.93;;
15287;SDS011;7745;48.708;9.026;2022-11-12T05:12:05;7.57;;;6.20;;
15287;SDS011;7745;48.708;9.026;2022-11-12T05:14:43;7.17;;;6.47;;
15287;SDS011;7745;48.708;9.026;2022-11-12T05:17:20;8.17;;;6.33;;
15287;SDS011;7745;48.708;9.026;2022-11-12T05:19:53;6.20;;;5.60;;
15287;SDS011;7745;48.708;9.026;2022-11-12T05:22:25;6.50;;;5.90;;
15287;SDS011;7745;48.708;9.026;2022-11-12T05:25:08;8.00;;;6.93;;
15287;SDS011;7745;48.708;9.026;2022-11-12T05:27:47;8.97;;;6.43;;
15287;SDS011;7745;48.708;9.026;2022-11-12T05:30:19;8.37;;;6.40;;
15287;SDS011;7745;48.708;9.026;2022-11-12T05:32:56;7.50;;;6.30;;
15287;SDS011;7745;48.708;9.026;2022-11-12T05:35:24;8.70;;;6.37;;
15287;SDS011;7745;48.708;9.026;2022-11-12T05:38:00;7.30;;;5.97;;
15287;SDS011;7745;48.708;9.026;2022-11-12T05:40:35;6.43;;;5.83;;
15287;SDS011;7745;48.708;9.026;2022-11-12T05:43:12;8.07;;;6.30;;
15287;SDS011;7745;48.708;9.026;2022-11-12T05:45:45;6.47;;;5.87;;
15287;SDS011;7745;48.708;9.026;2022-11-12T05:48:20;9.87;;;6.50;;
15287;SDS011;7745;48.708;9.026;2022-11-12T05:50:52;6.20;;;5.60;;
15287;SDS011;7745;48.708;9.026;2022-11-12T05:53:27;6.20;;;5.60;;
15287;SDS011;7745;48.708;9.026;2022-11-12T05:56:01;7.67;;;5.50;;
15287;SDS011;7745;48.708;9.026;2022-11-12T05:58:35;6.87;;;6.17;;
15287;SDS011;7745;48.708;9.026;2022-11-12T06:01:29;10.40;;;6.10;;
15287;SDS011;7745;48.708;9.026;2022-11-12T06:04:11;8.67;;;6.13;;
15287;SDS011;7745;48.708;9.026;2022-11-12T06:06:53;6.40;;;5.80;;
15287;SDS011;7745;48.708;9.026;2022-11-12T06:09:28;8.17;;;6.23;;
15287;SDS011;7745;48.708;9.026;2022-11-12T06:12:12;6.73;;;6.00;;
15287;SDS011;7745;48.708;9.026;2022-11-12T06:14:57;8.23;;;6.27;;
15287;SDS011;7745;48.708;9.026;2022-11-12T06:17:35;8.27;;;6.13;;
15287;SDS011;7745;48.708;9.026;2022-11-12T06:20:15;8.63;;;5.73;;
15287;SDS011;7745;48.708;9.026;2022-11-12T06:22:57;7.03;;;6.17;;
15287;SDS011;7745;48.708;9.026;2022-11-12T06:25:32;8.83;;;6.33;;
15287;SDS011;7745;48.708;9.026;2022-11-12T06:27:59;6.97;;;6.27;;
15287;SDS011;7745;48.708;9.026;2022-11-12T06:30:26;6.90;;;5.73;;
15287;SDS011;7745;48.708;9.026;2022-11-12T06:32:55;7.97;;;5.73;;
15287;SDS011;7745;48.708;9.026;2022-11-12T06:35:21;7.60;;;5.63;;
15287;SDS011;7745;48.708;9.026;2022-11-12T06:37:48;7.93;;;6.20;;
15287;SDS011;7745;48.708;9.026;2022-11-12T06:40:15;7.47;;;6.17;;
15287;SDS011;7745;48.708;9.026;2022-11-12T06:42:42;6.97;;;5.80;;
15287;SDS011;7745;48.708;9.026;2022-11-12T06:45:09;9.60;;;6.27;;
15287;SDS011;7745;48.708;9.026;2022-11-12T06:47:36;11.13;;;5.83;;
15287;SDS011;7745;48.708;9.026;2022-11-12T06:50:05;6.83;;;5.90;;
15287;SDS011;7745;48.708;9.026;2022-11-12T06:52:32;9.40;;;5.83;;
15287;SDS011;7745;48.708;9.026;2022-11-12T06:54:58;7.57;;;5.50;;
15287;SDS011;7745;48.708;9.026;2022-11-12T06:57:25;9.60;;;5.93;;
15287;SDS011;7745;48.708;9.026;2022-11-12T06:59:52;7.13;;;5.70;;
15287;SDS011;7745;48.708;9.026;2022-11-12T07:02:19;7.93;;;6.03;;
15287;SDS011;7745;48.708;9.026;2022-11-12T07:04:49;6.57;;;5.70;;
15287;SDS011;7745;48.708;9.026;2022-11-12T07:07:17;8.43;;;6.07;;
15287;SDS011;7745;48.708;9.026;2022-11-12T07:09:44;7.33;;;6.20;;
15287;SDS011;7745;48.708;9.026;2022-11-12T07:12:18;6.80;;;5.60;;
15287;SDS011;7745;48.708;9.026;2022-11-12T07:15:02;8.97;;;6.50;;
15287;SDS011;7745;48.708;9.026;2022-11-12T07:17:39;7.37;;;5.97;;
15287;SDS011;7745;48.708;9.026;2022-11-12T07:20:16;10.90;;;5.90;;
15287;SDS011;7745;48.708;9.026;2022-11-12T07:22:59;7.20;;;6.07;;
15287;SDS011;7745;48.708;9.026;2022-11-12T07:25:31;10.43;;;6.37;;
15287;SDS011;7745;48.708;9.026;2022-11-12T07:28:08;6.57;;;5.87;;
15287;SDS011;7745;48.708;9.026;2022-11-12T07:30:53;10.67;;;5.90;;
15287;SDS011;7745;48.708;9.026;2022-11-12T07:33:29;6.80;;;5.20;;
15287;SDS011;7745;48.708;9.026;2022-11-12T07:36:04;6.73;;;6.00;;
15287;SDS011;7745;48.708;9.026;2022-11-12T07:38:52;7.67;;;6.20;;
15287;SDS011;7745;48.708;9.026;2022-11-12T07:41:26;7.20;;;6.50;;
15287;SDS011;7745;48.708;9.026;2022-11-12T07:44:02;11.10;;;6.77;;
15287;SDS011;7745;48.708;9.026;2022-11-12T07:46:34;8.30;;;6.17;;
15287;SDS011;7745;48.708;9.026;2022-11-12T07:49:04;8.83;;;6.47;;
15287;SDS011;7745;48.708;9.026;2022-11-12T07:51:36;13.23;;;7.73;;
15287;SDS011;7745;48.708;9.026;2022-11-12T07:54:10;13.23;;;8.07;;
15287;SDS011;7745;48.708;9.026;2022-11-12T07:56:43;14.27;;;8.20;;
15287;SDS011;7745;48.708;9.026;2022-11-12T07:59:14;10.70;;;8.33;;
15287;SDS011;7745;48.708;9.026;2022-11-12T08:01:48;9.60;;;7.37;;
15287;SDS011;7745;48.708;9.026;2022-11-12T08:04:22;12.40;;;10.43;;
15287;SDS011;7745;48.708;9.026;2022-11-12T08:06:55;16.67;;;12.53;;
15287;SDS011;7745;48.708;9.026;2022-11-12T08:09:30;14.37;;;10.93;;
15287;SDS011;7745;48.708;9.026;2022-11-12T08:12:17;10.23;;;8.30;;
15287;SDS011;7745;48.708;9.026;2022-11-12T08:14:48;7.80;;;7.00;;
15287;SDS011;7745;48.708;9.026;2022-11-12T08:17:30;7.50;;;6.10;;
15287;SDS011;7745;48.708;9.026;2022-11-12T08:20:25;8.07;;;6.63;;
15287;SDS011;7745;48.708;9.026;2022-11-12T08:22:59;7.37;;;5.70;;
15287;SDS011;7745;48.708;9.026;2022-11-12T08:31:41;4.80;;;4.40;;
15287;SDS011;7745;48.708;9.026;2022-11-12T08:34:10;7.60;;;5.20;;
15287;SDS011;7745;48.708;9.026;2022-11-12T08:36:42;5.57;;;4.90;;
15287;SDS011;7745;48.708;9.026;2022-11-12T08:39:19;5.37;;;4.70;;
15287;SDS011;7745;48.708;9.026;2022-11-12T08:41:47;6.13;;;4.77;;
15287;SDS011;7745;48.708;9.026;2022-11-12T08:44:36;8.07;;;6.10;;
15287;SDS011;7745;48.708;9.026;2022-11-12T08:47:13;6.53;;;5.20;;
15287;SDS011;7745;48.708;9.026;2022-11-12T08:49:52;7.63;;;5.33;;
15287;SDS011;7745;48.708;9.026;2022-11-12T08:52:34;7.00;;;4.97;;
15287;SDS011;7745;48.708;9.026;2022-11-12T08:55:15;6.50;;;4.97;;
15287;SDS011;7745;48.708;9.026;2022-11-12T08:57:55;4.80;;;4.30;;
15287;SDS011;7745;48.708;9.026;2022-11-12T09:00:29;4.93;;;4.20;;
15287;SDS011;7745;48.708;9.026;2022-11-12T09:03:05;4.87;;;4.17;;
15287;SDS011;7745;48.708;9.026;2022-11-12T09:05:45;5.13;;;3.97;;
15287;SDS011;7745;48.708;9.026;2022-11-12T09:08:13;6.33;;;4.00;;
15287;SDS011;7745;48.708;9.026;2022-11-12T09:10:42;4.70;;;4.00;;
15287;SDS011;7745;48.708;9.026;2022-11-12T09:13:10;6.63;;;3.97;;
15287;SDS011;7745;48.708;9.026;2022-11-12T09:15:38;4.30;;;3.90;;
15287;SDS011;7745;48.708;9.026;2022-11-12T09:18:06;5.50;;;3.70;;
15287;SDS011;7745;48.708;9.026;2022-11-12T09:20:36;4.60;;;3.57;;
15287;SDS011;7745;48.708;9.026;2022-11-12T09:23:03;6.47;;;4.07;;
15287;SDS011;7745;48.708;9.026;2022-11-12T09:25:32;3.90;;;3.50;;
15287;SDS011;7745;48.708;9.026;2022-11-12T09:28:04;5.07;;;3.10;;
15287;SDS011;7745;48.708;9.026;2022-11-12T09:30:33;3.33;;;3.03;;
15287;SDS011;7745;48.708;9.026;2022-11-12T09:33:12;3.50;;;3.20;;
15287;SDS011;7745;48.708;9.026;2022-11-12T09:35:41;5.57;;;3.60;;
15287;SDS011;7745;48.708;9.026;2022-11-12T09:38:09;3.80;;;3.30;;
15287;SDS011;7745;48.708;9.026;2022-11-12T09:40:38;5.20;;;3.50;;
15287;SDS011;7745;48.708;9.026;2022-11-12T09:43:15;5.37;;;3.70;;
15287;SDS011;7745;48.708;9.026;2022-11-12T09:45:48;3.43;;;3.10;;
15287;SDS011;7745;48.708;9.026;2022-11-12T09:48:17;3.80;;;3.20;;
15287;SDS011;7745;48.708;9.026;2022-11-12T09:50:50;3.73;;;3.37;;
15287;SDS011;7745;48.708;9.026;2022-11-12T09:53:23;3.10;;;2.80;;
15287;SDS011;7745;48.708;9.026;2022-11-12T09:55:55;2.90;;;2.60;;
15287;SDS011;7745;48.708;9.026;2022-11-12T09:58:22;2.63;;;2.30;;
15287;SDS011;7745;48.708;9.026;2022-11-12T10:00:54;3.83;;;2.47;;
15287;SDS011;7745;48.708;9.026;2022-11-12T10:03:27;2.60;;;2.40;;
15287;SDS011;7745;48.708;9.026;2022-11-12T10:06:02;2.40;;;2.20;;
15287;SDS011;7745;48.708;9.026;2022-11-12T10:08:36;3.07;;;2.73;;
15287;SDS011;7745;48.708;9.026;2022-11-12T10:11:12;3.67;;;2.40;;
15287;SDS011;7745;48.708;9.026;2022-11-12T10:13:57;2.80;;;2.60;;
15287;SDS011;7745;48.708;9.026;2022-11-12T10:16:37;2.60;;;2.40;;
15287;SDS011;7745;48.708;9.026;2022-11-12T10:22:10;3.33;;;2.60;;
15287;SDS011;7745;48.708;9.026;2022-11-12T10:24:48;2.97;;;2.67;;
15287;SDS011;7745;48.708;9.026;2022-11-12T10:27:17;3.60;;;2.90;;
15287;SDS011;7745;48.708;9.026;2022-11-12T10:29:48;3.50;;;2.60;;
15287;SDS011;7745;48.708;9.026;2022-11-12T10:32:26;2.83;;;2.60;;
15287;SDS011;7745;48.708;9.026;2022-11-12T10:35:21;3.43;;;2.73;;
15287;SDS011;7745;48.708;9.026;2022-11-12T10:38:13;2.70;;;2.50;;
15287;SDS011;7745;48.708;9.026;2022-11-12T10:41:19;3.73;;;2.47;;
15287;SDS011;7745;48.708;9.026;2022-11-12T10:44:24;3.53;;;2.70;;
15287;SDS011;7745;48.708;9.026;2022-11-12T10:50:26;2.70;;;2.50;;
15287;SDS011;7745;48.708;9.026;2022-11-12T10:53:00;2.93;;;2.63;;
15287;SDS011;7745;48.708;9.026;2022-11-12T10:55:28;3.40;;;2.57;;
15287;SDS011;7745;48.708;9.026;2022-11-12T10:58:11;2.97;;;2.67;;
15287;SDS011;7745;48.708;9.026;2022-11-12T11:00:53;4.33;;;2.70;;
15287;SDS011;7745;48.708;9.026;2022-11-12T11:03:24;4.23;;;2.73;;
15287;SDS011;7745;48.708;9.026;2022-11-12T11:05:54;2.80;;;2.60;;
15287;SDS011;7745;48.708;9.026;2022-11-12T11:08:36;2.63;;;2.30;;
15287;SDS011;7745;48.708;9.026;2022-11-12T11:11:09;3.27;;;2.93;;
15287;SDS011;7745;48.708;9.026;2022-11-12T11:13:45;5.57;;;3.17;;
15287;SDS011;7745;48.708;9.026;2022-11-12T11:16:13;3.20;;;2.90;;
15287;SDS011;7745;48.708;9.026;2022-11-12T11:18:46;3.93;;;3.10;;
15287;SDS011;7745;48.708;9.026;2022-11-12T11:21:24;3.77;;;2.87;;
15287;SDS011;7745;48.708;9.026;2022-11-12T11:24:02;11.43;;;6.10;;
15287;SDS011;7745;48.708;9.026;2022-11-12T11:26:40;5.80;;;3.93;;
15287;SDS011;7745;48.708;9.026;2022-11-12T11:29:18;5.00;;;3.37;;
15287;SDS011;7745;48.708;9.026;2022-11-12T11:31:58;3.47;;;2.43;;
15287;SDS011;7745;48.708;9.026;2022-11-12T11:34:37;3.23;;;2.40;;
15287;SDS011;7745;48.708;9.026;2022-11-12T11:37:18;3.23;;;2.67;;
15287;SDS011;7745;48.708;9.026;2022-11-12T11:40:08;3.07;;;2.43;;
15287;SDS011;7745;48.708;9.026;2022-11-12T11:42:50;5.70;;;3.00;;
15287;SDS011;7745;48.708;9.026;2022-11-12T11:45:42;3.27;;;2.20;;
15287;SDS011;7745;48.708;9.026;2022-11-12T11:48:24;2.67;;;2.33;;
15287;SDS011;7745;48.708;9.026;2022-11-12T11:51:17;3.70;;;2.33;;
15287;SDS011;7745;48.708;9.026;2022-11-12T11:54:01;2.57;;;2.30;;
15287;SDS011;7745;48.708;9.026;2022-11-12T11:56:43;4.53;;;2.50;;
15287;SDS011;7745;48.708;9.026;2022-11-12T11:59:21;3.10;;;2.27;;
15287;SDS011;7745;48.708;9.026;2022-11-12T12:05:31;3.00;;;2.70;;
15287;SDS011;7745;48.708;9.026;2022-11-12T12:08:11;3.60;;;2.20;;
15287;SDS011;7745;48.708;9.026;2022-11-12T12:10:54;2.90;;;2.20;;
15287;SDS011;7745;48.708;9.026;2022-11-12T12:13:32;2.37;;;2.17;;
15287;SDS011;7745;48.708;9.026;2022-11-12T12:19:10;10.77;;;2.73;;
15287;SDS011;7745;48.708;9.026;2022-11-12T12:21:53;2.30;;;2.10;;
15287;SDS011;7745;48.708;9.026;2022-11-12T12:24:28;1.40;;;1.30;;
15287;SDS011;7745;48.708;9.026;2022-11-12T12:27:03;2.23;;;1.33;;
15287;SDS011;7745;48.708;9.026;2022-11-12T12:29:41;2.20;;;1.10;;
15287;SDS011;7745;48.708;9.026;2022-11-12T12:32:15;1.33;;;1.03;;
15287;SDS011;7745;48.708;9.026;2022-11-12T12:34:55;1.73;;;1.40;;
15287;SDS011;7745;48.708;9.026;2022-11-12T12:37:30;2.57;;;1.40;;
15287;SDS011;7745;48.708;9.026;2022-11-12T12:40:12;1.27;;;1.17;;
15287;SDS011;7745;48.708;9.026;2022-11-12T12:42:47;2.03;;;1.30;;
15287;SDS011;7745;48.708;9.026;2022-11-12T12:45:25;1.63;;;1.50;;
15287;SDS011;7745;48.708;9.026;2022-11-12T12:47:59;1.33;;;1.13;;
15287;SDS011;7745;48.708;9.026;2022-11-12T12:50:27;3.43;;;1.70;;
15287;SDS011;7745;48.708;9.026;2022-11-12T12:53:00;4.37;;;1.60;;
15287;SDS011;7745;48.708;9.026;2022-11-12T12:58:26;2.27;;;2.07;;
15287;SDS011;7745;48.708;9.026;2022-11-12T13:01:09;3.83;;;2.40;;
15287;SDS011;7745;48.708;9.026;2022-11-12T13:03:56;4.07;;;2.37;;
15287;SDS011;7745;48.708;9.026;2022-11-12T13:06:36;3.50;;;2.60;;
15287;SDS011;7745;48.708;9.026;2022-11-12T13:09:05;2.97;;;2.67;;
15287;SDS011;7745;48.708;9.026;2022-11-12T13:11:50;3.53;;;3.10;;
15287;SDS011;7745;48.708;9.026;2022-11-12T13:17:40;4.00;;;2.90;;
15287;SDS011;7745;48.708;9.026;2022-11-12T13:23:09;3.70;;;2.87;;
15287;SDS011;7745;48.708;9.026;2022-11-12T13:31:47;5.53;;;3.10;;
15287;SDS011;7745;48.708;9.026;2022-11-12T13:34:32;4.27;;;2.60;;
15287;SDS011;7745;48.708;9.026;2022-11-12T13:37:11;4.80;;;3.40;;
15287;SDS011;7745;48.708;9.026;2022-11-12T13:39:48;11.20;;;3.73;;
15287;SDS011;7745;48.708;9.026;2022-11-12T13:42:22;5.00;;;3.80;;
15287;SDS011;7745;48.708;9.026;2022-11-12T13:45:14;8.17;;;4.03;;
15287;SDS011;7745;48.708;9.026;2022-11-12T13:47:47;6.97;;;3.50;;
15287;SDS011;7745;48.708;9.026;2022-11-12T13:50:22;4.87;;;3.93;;
15287;SDS011;7745;48.708;9.026;2022-11-12T13:52:52;5.07;;;4.13;;
15287;SDS011;7745;48.708;9.026;2022-11-12T13:55:32;4.27;;;3.77;;
15287;SDS011;7745;48.708;9.026;2022-11-12T13:58:02;3.77;;;3.47;;
15287;SDS011;7745;48.708;9.026;2022-11-12T14:00:44;5.10;;;3.83;;
15287;SDS011;7745;48.708;9.026;2022-11-12T14:03:17;4.30;;;3.80;;
15287;SDS011;7745;48.708;9.026;2022-11-12T14:05:45;4.37;;;3.70;;
15287;SDS011;7745;48.708;9.026;2022-11-12T14:08:23;4.10;;;3.53;;
15287;SDS011;7745;48.708;9.026;2022-11-12T14:11:06;4.97;;;4.27;;
15287;SDS011;7745;48.708;9.026;2022-11-12T14:13:48;4.20;;;3.80;;
15287;SDS011;7745;48.708;9.026;2022-11-12T14:16:36;3.97;;;3.60;;
15287;SDS011;7745;48.708;9.026;2022-11-12T14:19:16;4.23;;;3.83;;
15287;SDS011;7745;48.708;9.026;2022-11-12T14:21:58;4.23;;;3.57;;
15287;SDS011;7745;48.708;9.026;2022-11-12T14:24:26;4.40;;;3.47;;
15287;SDS011;7745;48.708;9.026;2022-11-12T14:26:57;4.20;;;3.80;;
15287;SDS011;7745;48.708;9.026;2022-11-12T14:29:25;6.60;;;4.00;;
15287;SDS011;7745;48.708;9.026;2022-11-12T14:32:07;5.83;;;4.40;;
15287;SDS011;7745;48.708;9.026;2022-11-12T14:34:34;5.37;;;4.40;;
15287;SDS011;7745;48.708;9.026;2022-11-12T14:37:06;6.20;;;4.57;;
15287;SDS011;7745;48.708;9.026;2022-11-12T14:39:56;5.07;;;4.53;;
15287;SDS011;7745;48.708;9.026;2022-11-12T14:44:12;6.87;;;4.30;;
15287;SDS011;7745;48.708;9.026;2022-11-12T14:46:20;5.37;;;4.87;;
15287;SDS011;7745;48.708;9.026;2022-11-12T14:48:51;6.90;;;5.10;;
15287;SDS011;7745;48.708;9.026;2022-11-12T14:51:20;7.80;;;5.30;;
15287;SDS011;7745;48.708;9.026;2022-11-12T14:56:44;7.80;;;5.37;;
15287;SDS011;7745;48.708;9.026;2022-11-12T14:59:15;7.57;;;5.27;;
15287;SDS011;7745;48.708;9.026;2022-11-12T15:02:01;7.17;;;5.90;;
15287;SDS011;7745;48.708;9.026;2022-11-12T15:04:42;6.97;;;5.80;;
15287;SDS011;7745;48.708;9.026;2022-11-12T15:07:32;6.83;;;6.13;;
15287;SDS011;7745;48.708;9.026;2022-11-12T15:13:10;6.60;;;5.90;;
15287;SDS011;7745;48.708;9.026;2022-11-12T15:15:48;7.23;;;6.37;;
15287;SDS011;7745;48.708;9.026;2022-11-12T15:18:18;6.93;;;5.63;;
15287;SDS011;7745;48.708;9.026;2022-11-12T15:21:02;11.73;;;6.77;;
15287;SDS011;7745;48.708;9.026;2022-11-12T15:23:38;7.33;;;5.80;;
15287;SDS011;7745;48.708;9.026;2022-11-12T15:26:22;6.93;;;4.83;;
15287;SDS011;7745;48.708;9.026;2022-11-12T15:29:11;8.27;;;6.03;;
15287;SDS011;7745;48.708;9.026;2022-11-12T15:32:00;7.77;;;5.83;;
15287;SDS011;7745;48.708;9.026;2022-11-12T15:34:56;10.73;;;5.70;;
15287;SDS011;7745;48.708;9.026;2022-11-12T15:40:54;8.07;;;5.77;;
15287;SDS011;7745;48.708;9.026;2022-11-12T15:43:34;7.17;;;5.57;;
15287;SDS011;7745;48.708;9.026;2022-11-12T15:46:38;9.47;;;6.10;;
15287;SDS011;7745;48.708;9.026;2022-11-12T15:52:29;8.03;;;5.47;;
15287;SDS011;7745;48.708;9.026;2022-11-12T15:55:04;6.23;;;5.53;;
15287;SDS011;7745;48.708;9.026;2022-11-12T15:57:40;9.47;;;5.50;;
15287;SDS011;7745;48.708;9.026;2022-11-12T16:00:12;8.87;;;6.00;;
15287;SDS011;7745;48.708;9.026;2022-11-12T16:02:41;7.47;;;6.33;;
15287;SDS011;7745;48.708;9.026;2022-11-12T16:05:11;7.17;;;6.47;;
15287;SDS011;7745;48.708;9.026;2022-11-12T16:07:38;8.37;;;6.17;;
15287;SDS011;7745;48.708;9.026;2022-11-12T16:10:05;7.53;;;6.73;;
15287;SDS011;7745;48.708;9.026;2022-11-12T16:12:33;9.20;;;6.43;;
15287;SDS011;7745;48.708;9.026;2022-11-12T16:15:01;6.80;;;6.10;;
15287;SDS011;7745;48.708;9.026;2022-11-12T16:17:28;14.03;;;7.33;;
15287;SDS011;7745;48.708;9.026;2022-11-12T16:19:55;10.20;;;6.63;;
15287;SDS011;7745;48.708;9.026;2022-11-12T16:22:25;9.67;;;6.33;;
15287;SDS011;7745;48.708;9.026;2022-11-12T16:24:52;45.80;;;24.57;;
15287;SDS011;7745;48.708;9.026;2022-11-12T16:27:21;33.30;;;18.63;;
15287;SDS011;7745;48.708;9.026;2022-11-12T16:29:48;10.40;;;6.93;;